sensor_id;sensor_type;location;lat;lon;timestamp;temperature;humidity
13332;DHT22;6735;51.456;12.626;2023-05-23T00:01:40;17.40;73.20
13332;DHT22;6735;51.456;12.626;2023-05-23T00:04:07;17.50;73.40
13332;DHT22;6735;51.456;12.626;2023-05-23T00:06:33;17.40;73.80
13332;DHT22;6735;51.456;12.626;2023-05-23T00:09:00;17.40;74.00
13332;DHT22;6735;51.456;12.626;2023-05-23T00:11:26;17.40;74.20
13332;DHT22;6735;51.456;12.626;2023-05-23T00:13:53;17.40;74.50
13332;DHT22;6735;51.456;12.626;2023-05-23T00:16:19;17.40;74.70
13332;DHT22;6735;51.456;12.626;2023-05-23T00:18:45;17.40;74.90
13332;DHT22;6735;51.456;12.626;2023-05-23T00:21:11;17.40;75.10
13332;DHT22;6735;51.456;12.626;2023-05-23T00:23:38;17.40;75.20
13332;DHT22;6735;51.456;12.626;2023-05-23T00:26:06;17.40;75.40
13332;DHT22;6735;51.456;12.626;2023-05-23T00:28:32;17.40;75.70
13332;DHT22;6735;51.456;12.626;2023-05-23T00:30:57;17.40;76.40
13332;DHT22;6735;51.456;12.626;2023-05-23T00:33:23;17.40;76.80
13332;DHT22;6735;51.456;12.626;2023-05-23T00:35:48;17.30;77.20
13332;DHT22;6735;51.456;12.626;2023-05-23T00:38:14;17.30;77.00
13332;DHT22;6735;51.456;12.626;2023-05-23T00:40:40;17.30;76.60
13332;DHT22;6735;51.456;12.626;2023-05-23T00:43:05;17.30;76.80
13332;DHT22;6735;51.456;12.626;2023-05-23T00:45:32;17.30;77.00
13332;DHT22;6735;51.456;12.626;2023-05-23T00:47:58;17.30;76.90
13332;DHT22;6735;51.456;12.626;2023-05-23T00:50:24;17.20;77.00
13332;DHT22;6735;51.456;12.626;2023-05-23T00:52:54;17.30;77.20
13332;DHT22;6735;51.456;12.626;2023-05-23T00:55:19;17.30;77.50
13332;DHT22;6735;51.456;12.626;2023-05-23T00:57:45;17.20;77.60
13332;DHT22;6735;51.456;12.626;2023-05-23T01:00:14;17.20;77.60
13332;DHT22;6735;51.456;12.626;2023-05-23T01:02:44;17.20;77.40
13332;DHT22;6735;51.456;12.626;2023-05-23T01:05:11;17.20;77.90
13332;DHT22;6735;51.456;12.626;2023-05-23T01:07:40;17.20;78.40
13332;DHT22;6735;51.456;12.626;2023-05-23T01:10:06;17.20;78.10
13332;DHT22;6735;51.456;12.626;2023-05-23T01:18:32;17.10;79.70
13332;DHT22;6735;51.456;12.626;2023-05-23T01:21:16;17.10;79.50
13332;DHT22;6735;51.456;12.626;2023-05-23T01:29:27;17.20;78.90
13332;DHT22;6735;51.456;12.626;2023-05-23T01:31:55;17.10;78.70
13332;DHT22;6735;51.456;12.626;2023-05-23T01:34:21;17.20;78.70
13332;DHT22;6735;51.456;12.626;2023-05-23T01:36:49;17.20;78.90
13332;DHT22;6735;51.456;12.626;2023-05-23T01:39:18;17.20;78.90
13332;DHT22;6735;51.456;12.626;2023-05-23T01:41:43;17.20;79.10
13332;DHT22;6735;51.456;12.626;2023-05-23T01:44:09;17.20;78.90
13332;DHT22;6735;51.456;12.626;2023-05-23T01:46:34;17.20;79.10
13332;DHT22;6735;51.456;12.626;2023-05-23T01:49:03;17.20;79.10
13332;DHT22;6735;51.456;12.626;2023-05-23T01:51:31;17.20;79.90
13332;DHT22;6735;51.456;12.626;2023-05-23T01:53:57;17.10;79.80
13332;DHT22;6735;51.456;12.626;2023-05-23T01:56:23;17.10;80.50
13332;DHT22;6735;51.456;12.626;2023-05-23T01:58:49;17.00;80.40
13332;DHT22;6735;51.456;12.626;2023-05-23T02:01:15;17.00;80.40
13332;DHT22;6735;51.456;12.626;2023-05-23T02:03:40;17.00;80.80
13332;DHT22;6735;51.456;12.626;2023-05-23T02:06:06;17.00;80.50
13332;DHT22;6735;51.456;12.626;2023-05-23T02:08:32;17.00;80.40
13332;DHT22;6735;51.456;12.626;2023-05-23T02:10:57;17.00;80.40
13332;DHT22;6735;51.456;12.626;2023-05-23T02:13:22;17.00;80.40
13332;DHT22;6735;51.456;12.626;2023-05-23T02:15:48;17.00;80.60
13332;DHT22;6735;51.456;12.626;2023-05-23T02:18:13;17.00;80.70
13332;DHT22;6735;51.456;12.626;2023-05-23T02:20:39;17.10;80.80
13332;DHT22;6735;51.456;12.626;2023-05-23T02:23:05;17.00;81.30
13332;DHT22;6735;51.456;12.626;2023-05-23T02:25:30;17.10;81.30
13332;DHT22;6735;51.456;12.626;2023-05-23T02:27:56;17.10;81.30
13332;DHT22;6735;51.456;12.626;2023-05-23T02:30:21;17.00;81.40
13332;DHT22;6735;51.456;12.626;2023-05-23T02:32:47;17.10;81.50
13332;DHT22;6735;51.456;12.626;2023-05-23T02:35:12;17.00;81.40
13332;DHT22;6735;51.456;12.626;2023-05-23T02:37:38;17.00;81.60
13332;DHT22;6735;51.456;12.626;2023-05-23T02:40:04;17.00;81.50
13332;DHT22;6735;51.456;12.626;2023-05-23T02:42:32;17.00;81.60
13332;DHT22;6735;51.456;12.626;2023-05-23T02:44:57;17.00;81.40
13332;DHT22;6735;51.456;12.626;2023-05-23T02:47:23;17.00;81.40
13332;DHT22;6735;51.456;12.626;2023-05-23T02:49:48;16.90;81.60
13332;DHT22;6735;51.456;12.626;2023-05-23T02:52:14;17.00;81.50
13332;DHT22;6735;51.456;12.626;2023-05-23T02:54:39;17.00;81.50
13332;DHT22;6735;51.456;12.626;2023-05-23T02:57:05;17.00;81.50
13332;DHT22;6735;51.456;12.626;2023-05-23T02:59:30;16.90;81.50
13332;DHT22;6735;51.456;12.626;2023-05-23T03:01:56;16.90;81.60
13332;DHT22;6735;51.456;12.626;2023-05-23T03:04:21;17.00;81.50
13332;DHT22;6735;51.456;12.626;2023-05-23T03:06:47;17.00;81.50
13332;DHT22;6735;51.456;12.626;2023-05-23T03:09:14;17.00;81.60
13332;DHT22;6735;51.456;12.626;2023-05-23T03:11:41;17.00;81.80
13332;DHT22;6735;51.456;12.626;2023-05-23T03:14:07;17.00;82.20
13332;DHT22;6735;51.456;12.626;2023-05-23T03:16:32;17.00;82.50
13332;DHT22;6735;51.456;12.626;2023-05-23T03:18:57;17.00;82.60
13332;DHT22;6735;51.456;12.626;2023-05-23T03:21:23;17.00;82.70
13332;DHT22;6735;51.456;12.626;2023-05-23T03:23:49;17.00;82.90
13332;DHT22;6735;51.456;12.626;2023-05-23T03:26:14;17.10;83.10
13332;DHT22;6735;51.456;12.626;2023-05-23T03:28:40;17.10;83.30
13332;DHT22;6735;51.456;12.626;2023-05-23T03:31:05;17.10;83.10
13332;DHT22;6735;51.456;12.626;2023-05-23T03:33:31;17.10;83.10
13332;DHT22;6735;51.456;12.626;2023-05-23T03:35:56;17.10;83.50
13332;DHT22;6735;51.456;12.626;2023-05-23T03:38:22;17.20;83.60
13332;DHT22;6735;51.456;12.626;2023-05-23T03:40:47;17.10;83.90
13332;DHT22;6735;51.456;12.626;2023-05-23T03:43:13;17.20;83.60
13332;DHT22;6735;51.456;12.626;2023-05-23T03:45:38;17.20;83.90
13332;DHT22;6735;51.456;12.626;2023-05-23T03:48:04;17.20;83.80
13332;DHT22;6735;51.456;12.626;2023-05-23T03:50:29;17.20;84.10
13332;DHT22;6735;51.456;12.626;2023-05-23T03:52:55;17.20;84.10
13332;DHT22;6735;51.456;12.626;2023-05-23T03:55:21;17.20;84.00
13332;DHT22;6735;51.456;12.626;2023-05-23T03:57:49;17.20;84.40
13332;DHT22;6735;51.456;12.626;2023-05-23T04:00:15;17.30;84.40
13332;DHT22;6735;51.456;12.626;2023-05-23T04:02:41;17.30;84.20
13332;DHT22;6735;51.456;12.626;2023-05-23T04:05:08;17.30;84.00
13332;DHT22;6735;51.456;12.626;2023-05-23T04:07:33;17.40;83.90
13332;DHT22;6735;51.456;12.626;2023-05-23T04:09:59;17.50;83.70
13332;DHT22;6735;51.456;12.626;2023-05-23T04:12:25;17.50;83.20
13332;DHT22;6735;51.456;12.626;2023-05-23T04:14:50;17.60;83.20
13332;DHT22;6735;51.456;12.626;2023-05-23T04:17:17;17.60;83.10
13332;DHT22;6735;51.456;12.626;2023-05-23T04:19:43;17.60;82.90
13332;DHT22;6735;51.456;12.626;2023-05-23T04:22:08;17.70;82.90
13332;DHT22;6735;51.456;12.626;2023-05-23T04:24:34;17.70;82.80
13332;DHT22;6735;51.456;12.626;2023-05-23T04:26:59;17.70;82.70
13332;DHT22;6735;51.456;12.626;2023-05-23T04:29:25;17.60;82.70
13332;DHT22;6735;51.456;12.626;2023-05-23T04:31:52;17.60;82.70
13332;DHT22;6735;51.456;12.626;2023-05-23T04:34:19;17.60;82.60
13332;DHT22;6735;51.456;12.626;2023-05-23T04:36:46;17.60;82.60
13332;DHT22;6735;51.456;12.626;2023-05-23T04:39:12;17.50;82.80
13332;DHT22;6735;51.456;12.626;2023-05-23T04:41:38;17.50;83.00
13332;DHT22;6735;51.456;12.626;2023-05-23T04:44:04;17.50;82.90
13332;DHT22;6735;51.456;12.626;2023-05-23T04:46:30;17.40;83.10
13332;DHT22;6735;51.456;12.626;2023-05-23T04:48:56;17.40;83.30
13332;DHT22;6735;51.456;12.626;2023-05-23T04:51:23;17.40;83.20
13332;DHT22;6735;51.456;12.626;2023-05-23T04:53:50;17.40;83.30
13332;DHT22;6735;51.456;12.626;2023-05-23T04:56:15;17.40;83.30
13332;DHT22;6735;51.456;12.626;2023-05-23T04:58:42;17.50;83.30
13332;DHT22;6735;51.456;12.626;2023-05-23T05:01:09;17.50;83.40
13332;DHT22;6735;51.456;12.626;2023-05-23T05:03:35;17.70;83.00
13332;DHT22;6735;51.456;12.626;2023-05-23T05:06:01;18.40;82.10
13332;DHT22;6735;51.456;12.626;2023-05-23T05:08:27;19.20;79.80
13332;DHT22;6735;51.456;12.626;2023-05-23T05:10:53;20.00;77.20
13332;DHT22;6735;51.456;12.626;2023-05-23T05:13:19;20.70;75.80
13332;DHT22;6735;51.456;12.626;2023-05-23T05:15:45;21.10;74.70
13332;DHT22;6735;51.456;12.626;2023-05-23T05:18:10;21.50;73.50
13332;DHT22;6735;51.456;12.626;2023-05-23T05:20:36;21.70;72.40
13332;DHT22;6735;51.456;12.626;2023-05-23T05:23:02;21.70;72.10
13332;DHT22;6735;51.456;12.626;2023-05-23T05:25:27;21.40;72.90
13332;DHT22;6735;51.456;12.626;2023-05-23T05:28:02;21.30;73.30
13332;DHT22;6735;51.456;12.626;2023-05-23T05:30:30;21.10;73.40
13332;DHT22;6735;51.456;12.626;2023-05-23T05:32:57;20.80;74.40
13332;DHT22;6735;51.456;12.626;2023-05-23T05:35:23;20.40;75.00
13332;DHT22;6735;51.456;12.626;2023-05-23T05:37:49;20.20;75.50
13332;DHT22;6735;51.456;12.626;2023-05-23T05:40:14;20.10;75.50
13332;DHT22;6735;51.456;12.626;2023-05-23T05:42:40;20.00;75.90
13332;DHT22;6735;51.456;12.626;2023-05-23T05:45:06;20.30;74.70
13332;DHT22;6735;51.456;12.626;2023-05-23T05:47:31;20.50;74.20
13332;DHT22;6735;51.456;12.626;2023-05-23T05:49:57;20.40;74.20
13332;DHT22;6735;51.456;12.626;2023-05-23T05:52:22;20.20;74.30
13332;DHT22;6735;51.456;12.626;2023-05-23T05:54:47;20.70;73.90
13332;DHT22;6735;51.456;12.626;2023-05-23T05:57:13;21.10;72.20
13332;DHT22;6735;51.456;12.626;2023-05-23T05:59:38;21.10;71.90
13332;DHT22;6735;51.456;12.626;2023-05-23T06:02:04;21.20;71.60
13332;DHT22;6735;51.456;12.626;2023-05-23T06:04:29;20.90;72.50
13332;DHT22;6735;51.456;12.626;2023-05-23T06:06:55;20.50;73.30
13332;DHT22;6735;51.456;12.626;2023-05-23T06:09:20;20.10;74.10
13332;DHT22;6735;51.456;12.626;2023-05-23T06:11:46;19.90;74.70
13332;DHT22;6735;51.456;12.626;2023-05-23T06:14:11;19.70;75.00
13332;DHT22;6735;51.456;12.626;2023-05-23T06:16:37;19.40;75.60
13332;DHT22;6735;51.456;12.626;2023-05-23T06:19:02;19.40;75.90
13332;DHT22;6735;51.456;12.626;2023-05-23T06:21:28;19.20;76.10
13332;DHT22;6735;51.456;12.626;2023-05-23T06:23:53;19.10;76.40
13332;DHT22;6735;51.456;12.626;2023-05-23T06:26:19;19.20;76.30
13332;DHT22;6735;51.456;12.626;2023-05-23T06:28:44;19.00;76.70
13332;DHT22;6735;51.456;12.626;2023-05-23T06:31:10;19.10;76.50
13332;DHT22;6735;51.456;12.626;2023-05-23T06:33:35;19.10;76.60
13332;DHT22;6735;51.456;12.626;2023-05-23T06:36:01;19.20;76.30
13332;DHT22;6735;51.456;12.626;2023-05-23T06:38:28;19.50;75.50
13332;DHT22;6735;51.456;12.626;2023-05-23T06:40:55;19.60;75.20
13332;DHT22;6735;51.456;12.626;2023-05-23T06:43:20;19.50;75.40
13332;DHT22;6735;51.456;12.626;2023-05-23T06:45:46;19.50;75.50
13332;DHT22;6735;51.456;12.626;2023-05-23T06:48:12;19.50;75.40
13332;DHT22;6735;51.456;12.626;2023-05-23T06:50:37;19.60;75.40
13332;DHT22;6735;51.456;12.626;2023-05-23T06:53:03;19.60;75.30
13332;DHT22;6735;51.456;12.626;2023-05-23T06:55:28;19.50;75.70
13332;DHT22;6735;51.456;12.626;2023-05-23T06:57:54;19.30;76.20
13332;DHT22;6735;51.456;12.626;2023-05-23T07:00:20;19.20;76.40
13332;DHT22;6735;51.456;12.626;2023-05-23T07:02:46;19.00;76.80
13332;DHT22;6735;51.456;12.626;2023-05-23T07:05:13;19.00;76.90
13332;DHT22;6735;51.456;12.626;2023-05-23T07:07:39;19.00;77.00
13332;DHT22;6735;51.456;12.626;2023-05-23T07:10:05;18.90;77.20
13332;DHT22;6735;51.456;12.626;2023-05-23T07:12:31;18.60;77.10
13332;DHT22;6735;51.456;12.626;2023-05-23T07:14:57;18.40;77.20
13332;DHT22;6735;51.456;12.626;2023-05-23T07:17:22;18.40;76.90
13332;DHT22;6735;51.456;12.626;2023-05-23T07:19:48;18.40;76.80
13332;DHT22;6735;51.456;12.626;2023-05-23T07:22:13;18.70;75.70
13332;DHT22;6735;51.456;12.626;2023-05-23T07:24:38;18.80;74.60
13332;DHT22;6735;51.456;12.626;2023-05-23T07:27:04;18.80;74.20
13332;DHT22;6735;51.456;12.626;2023-05-23T07:29:30;19.10;73.60
13332;DHT22;6735;51.456;12.626;2023-05-23T07:31:56;19.20;72.90
13332;DHT22;6735;51.456;12.626;2023-05-23T07:34:23;19.10;72.40
13332;DHT22;6735;51.456;12.626;2023-05-23T07:36:48;19.10;72.40
13332;DHT22;6735;51.456;12.626;2023-05-23T07:39:14;19.00;71.90
13332;DHT22;6735;51.456;12.626;2023-05-23T07:41:40;18.90;72.10
13332;DHT22;6735;51.456;12.626;2023-05-23T07:44:06;18.80;71.60
13332;DHT22;6735;51.456;12.626;2023-05-23T07:46:31;18.80;71.30
13332;DHT22;6735;51.456;12.626;2023-05-23T07:48:56;18.60;71.90
13332;DHT22;6735;51.456;12.626;2023-05-23T07:51:22;18.50;72.00
13332;DHT22;6735;51.456;12.626;2023-05-23T07:53:48;18.40;71.90
13332;DHT22;6735;51.456;12.626;2023-05-23T07:56:13;18.50;71.80
13332;DHT22;6735;51.456;12.626;2023-05-23T07:58:39;18.40;71.90
13332;DHT22;6735;51.456;12.626;2023-05-23T08:01:04;18.50;71.70
13332;DHT22;6735;51.456;12.626;2023-05-23T08:03:30;18.40;71.60
13332;DHT22;6735;51.456;12.626;2023-05-23T08:05:55;18.30;71.80
13332;DHT22;6735;51.456;12.626;2023-05-23T08:08:21;18.30;71.40
13332;DHT22;6735;51.456;12.626;2023-05-23T08:10:46;18.30;71.40
13332;DHT22;6735;51.456;12.626;2023-05-23T08:13:13;18.20;71.00
13332;DHT22;6735;51.456;12.626;2023-05-23T08:15:38;18.20;71.10
13332;DHT22;6735;51.456;12.626;2023-05-23T08:18:04;18.30;70.60
13332;DHT22;6735;51.456;12.626;2023-05-23T08:20:30;18.20;70.50
13332;DHT22;6735;51.456;12.626;2023-05-23T08:22:57;18.20;70.40
13332;DHT22;6735;51.456;12.626;2023-05-23T08:25:23;18.30;70.20
13332;DHT22;6735;51.456;12.626;2023-05-23T08:27:49;18.40;69.80
13332;DHT22;6735;51.456;12.626;2023-05-23T08:30:15;18.40;69.80
13332;DHT22;6735;51.456;12.626;2023-05-23T08:32:41;18.50;69.50
13332;DHT22;6735;51.456;12.626;2023-05-23T08:35:07;18.60;69.40
13332;DHT22;6735;51.456;12.626;2023-05-23T08:37:32;18.70;68.90
13332;DHT22;6735;51.456;12.626;2023-05-23T08:39:58;18.80;68.70
13332;DHT22;6735;51.456;12.626;2023-05-23T08:42:23;18.80;68.70
13332;DHT22;6735;51.456;12.626;2023-05-23T08:44:49;18.80;68.50
13332;DHT22;6735;51.456;12.626;2023-05-23T08:47:15;18.80;68.80
13332;DHT22;6735;51.456;12.626;2023-05-23T08:49:42;18.90;68.60
13332;DHT22;6735;51.456;12.626;2023-05-23T08:52:11;18.90;68.80
13332;DHT22;6735;51.456;12.626;2023-05-23T08:54:37;19.10;68.60
13332;DHT22;6735;51.456;12.626;2023-05-23T08:57:02;19.10;68.40
13332;DHT22;6735;51.456;12.626;2023-05-23T08:59:28;19.20;68.10
13332;DHT22;6735;51.456;12.626;2023-05-23T09:01:54;19.40;67.90
13332;DHT22;6735;51.456;12.626;2023-05-23T09:04:21;19.50;67.80
13332;DHT22;6735;51.456;12.626;2023-05-23T09:06:46;19.60;67.60
13332;DHT22;6735;51.456;12.626;2023-05-23T09:09:12;19.60;67.80
13332;DHT22;6735;51.456;12.626;2023-05-23T09:11:38;19.70;67.50
13332;DHT22;6735;51.456;12.626;2023-05-23T09:14:03;19.80;66.90
13332;DHT22;6735;51.456;12.626;2023-05-23T09:16:33;20.20;66.20
13332;DHT22;6735;51.456;12.626;2023-05-23T09:18:59;20.70;65.30
13332;DHT22;6735;51.456;12.626;2023-05-23T09:21:33;20.80;64.40
13332;DHT22;6735;51.456;12.626;2023-05-23T09:23:59;21.00;64.30
13332;DHT22;6735;51.456;12.626;2023-05-23T09:26:25;21.10;63.90
13332;DHT22;6735;51.456;12.626;2023-05-23T09:28:56;21.40;62.80
13332;DHT22;6735;51.456;12.626;2023-05-23T09:31:25;21.30;63.00
13332;DHT22;6735;51.456;12.626;2023-05-23T09:33:51;21.30;62.80
13332;DHT22;6735;51.456;12.626;2023-05-23T09:36:17;21.50;62.60
13332;DHT22;6735;51.456;12.626;2023-05-23T09:38:44;21.90;60.70
13332;DHT22;6735;51.456;12.626;2023-05-23T09:41:10;22.10;60.90
13332;DHT22;6735;51.456;12.626;2023-05-23T09:43:49;22.80;59.60
13332;DHT22;6735;51.456;12.626;2023-05-23T09:46:15;22.90;58.50
13332;DHT22;6735;51.456;12.626;2023-05-23T09:48:48;22.90;59.00
13332;DHT22;6735;51.456;12.626;2023-05-23T09:51:18;22.90;58.50
13332;DHT22;6735;51.456;12.626;2023-05-23T09:53:43;22.90;58.80
13332;DHT22;6735;51.456;12.626;2023-05-23T09:56:09;22.50;58.60
13332;DHT22;6735;51.456;12.626;2023-05-23T09:58:37;22.60;58.70
13332;DHT22;6735;51.456;12.626;2023-05-23T10:01:06;22.70;58.20
13332;DHT22;6735;51.456;12.626;2023-05-23T10:03:51;22.90;57.70
13332;DHT22;6735;51.456;12.626;2023-05-23T10:06:25;23.10;55.40
13332;DHT22;6735;51.456;12.626;2023-05-23T10:09:05;23.10;56.90
13332;DHT22;6735;51.456;12.626;2023-05-23T10:14:09;23.00;56.70
13332;DHT22;6735;51.456;12.626;2023-05-23T10:16:47;22.90;55.70
13332;DHT22;6735;51.456;12.626;2023-05-23T10:19:22;22.90;54.10
13332;DHT22;6735;51.456;12.626;2023-05-23T10:21:53;22.80;55.70
13332;DHT22;6735;51.456;12.626;2023-05-23T10:24:21;22.50;56.50
13332;DHT22;6735;51.456;12.626;2023-05-23T10:26:47;22.40;56.30
13332;DHT22;6735;51.456;12.626;2023-05-23T10:29:12;22.30;56.30
13332;DHT22;6735;51.456;12.626;2023-05-23T10:31:38;22.20;55.90
13332;DHT22;6735;51.456;12.626;2023-05-23T10:37:05;22.10;56.20
13332;DHT22;6735;51.456;12.626;2023-05-23T10:39:58;21.80;56.80
13332;DHT22;6735;51.456;12.626;2023-05-23T10:42:55;21.70;56.70
13332;DHT22;6735;51.456;12.626;2023-05-23T10:45:22;21.70;57.40
13332;DHT22;6735;51.456;12.626;2023-05-23T10:47:51;21.80;57.30
13332;DHT22;6735;51.456;12.626;2023-05-23T10:50:34;22.00;56.90
13332;DHT22;6735;51.456;12.626;2023-05-23T10:53:03;22.20;56.70
13332;DHT22;6735;51.456;12.626;2023-05-23T10:55:33;22.40;56.10
13332;DHT22;6735;51.456;12.626;2023-05-23T10:58:09;22.40;56.20
13332;DHT22;6735;51.456;12.626;2023-05-23T11:00:36;22.40;55.60
13332;DHT22;6735;51.456;12.626;2023-05-23T11:03:04;22.20;56.00
13332;DHT22;6735;51.456;12.626;2023-05-23T11:05:33;22.40;55.30
13332;DHT22;6735;51.456;12.626;2023-05-23T11:08:11;22.40;55.40
13332;DHT22;6735;51.456;12.626;2023-05-23T11:11:00;22.20;55.80
13332;DHT22;6735;51.456;12.626;2023-05-23T11:13:52;22.00;56.00
13332;DHT22;6735;51.456;12.626;2023-05-23T11:16:42;22.10;56.00
13332;DHT22;6735;51.456;12.626;2023-05-23T11:21:54;22.00;56.00
13332;DHT22;6735;51.456;12.626;2023-05-23T11:24:20;21.90;56.10
13332;DHT22;6735;51.456;12.626;2023-05-23T11:26:57;21.80;57.00
13332;DHT22;6735;51.456;12.626;2023-05-23T11:29:28;21.90;56.80
13332;DHT22;6735;51.456;12.626;2023-05-23T11:31:54;21.90;56.60
13332;DHT22;6735;51.456;12.626;2023-05-23T11:34:21;21.70;57.50
13332;DHT22;6735;51.456;12.626;2023-05-23T11:36:46;21.40;58.40
13332;DHT22;6735;51.456;12.626;2023-05-23T11:39:16;21.10;59.60
13332;DHT22;6735;51.456;12.626;2023-05-23T11:41:43;20.90;60.00
13332;DHT22;6735;51.456;12.626;2023-05-23T11:44:12;20.40;61.40
13332;DHT22;6735;51.456;12.626;2023-05-23T11:46:38;20.30;62.10
13332;DHT22;6735;51.456;12.626;2023-05-23T11:49:10;20.50;62.00
13332;DHT22;6735;51.456;12.626;2023-05-23T11:51:36;20.60;61.80
13332;DHT22;6735;51.456;12.626;2023-05-23T11:54:01;20.70;61.10
13332;DHT22;6735;51.456;12.626;2023-05-23T11:56:27;20.50;61.50
13332;DHT22;6735;51.456;12.626;2023-05-23T11:58:55;20.10;64.00
13332;DHT22;6735;51.456;12.626;2023-05-23T12:01:27;19.80;64.80
13332;DHT22;6735;51.456;12.626;2023-05-23T12:03:55;19.40;66.00
13332;DHT22;6735;51.456;12.626;2023-05-23T12:06:22;19.10;67.00
13332;DHT22;6735;51.456;12.626;2023-05-23T12:08:50;19.20;67.20
13332;DHT22;6735;51.456;12.626;2023-05-23T12:11:16;19.40;67.40
13332;DHT22;6735;51.456;12.626;2023-05-23T12:13:41;19.60;67.40
13332;DHT22;6735;51.456;12.626;2023-05-23T12:16:07;19.70;66.70
13332;DHT22;6735;51.456;12.626;2023-05-23T12:18:33;19.70;66.70
13332;DHT22;6735;51.456;12.626;2023-05-23T12:21:03;20.10;65.80
13332;DHT22;6735;51.456;12.626;2023-05-23T12:23:31;20.10;65.30
13332;DHT22;6735;51.456;12.626;2023-05-23T12:25:56;19.70;66.40
13332;DHT22;6735;51.456;12.626;2023-05-23T12:28:40;19.70;66.30
13332;DHT22;6735;51.456;12.626;2023-05-23T12:31:21;19.50;66.80
13332;DHT22;6735;51.456;12.626;2023-05-23T12:33:47;19.20;67.40
13332;DHT22;6735;51.456;12.626;2023-05-23T12:36:14;19.00;67.70
13332;DHT22;6735;51.456;12.626;2023-05-23T12:38:41;19.00;67.90
13332;DHT22;6735;51.456;12.626;2023-05-23T12:41:10;18.70;68.20
13332;DHT22;6735;51.456;12.626;2023-05-23T12:43:39;18.40;69.00
13332;DHT22;6735;51.456;12.626;2023-05-23T12:46:05;18.40;69.00
13332;DHT22;6735;51.456;12.626;2023-05-23T12:48:32;18.30;69.10
13332;DHT22;6735;51.456;12.626;2023-05-23T12:50:58;18.30;69.10
13332;DHT22;6735;51.456;12.626;2023-05-23T12:53:24;18.40;69.20
13332;DHT22;6735;51.456;12.626;2023-05-23T12:55:50;18.10;69.70
13332;DHT22;6735;51.456;12.626;2023-05-23T12:58:15;17.90;70.30
13332;DHT22;6735;51.456;12.626;2023-05-23T13:00:41;17.90;70.70
13332;DHT22;6735;51.456;12.626;2023-05-23T13:03:07;17.90;71.20
13332;DHT22;6735;51.456;12.626;2023-05-23T13:05:32;17.70;72.00
13332;DHT22;6735;51.456;12.626;2023-05-23T13:07:58;17.60;72.00
13332;DHT22;6735;51.456;12.626;2023-05-23T13:10:23;17.50;72.40
13332;DHT22;6735;51.456;12.626;2023-05-23T13:12:49;17.60;72.20
13332;DHT22;6735;51.456;12.626;2023-05-23T13:15:15;17.50;72.80
13332;DHT22;6735;51.456;12.626;2023-05-23T13:17:41;17.60;72.30
13332;DHT22;6735;51.456;12.626;2023-05-23T13:20:07;17.50;72.30
13332;DHT22;6735;51.456;12.626;2023-05-23T13:22:33;17.50;72.20
13332;DHT22;6735;51.456;12.626;2023-05-23T13:24:59;17.30;72.80
13332;DHT22;6735;51.456;12.626;2023-05-23T13:27:24;17.20;73.20
13332;DHT22;6735;51.456;12.626;2023-05-23T13:29:50;17.20;73.10
13332;DHT22;6735;51.456;12.626;2023-05-23T13:32:15;17.20;73.30
13332;DHT22;6735;51.456;12.626;2023-05-23T13:34:41;17.30;73.10
13332;DHT22;6735;51.456;12.626;2023-05-23T13:37:07;17.40;72.80
13332;DHT22;6735;51.456;12.626;2023-05-23T13:39:32;17.10;73.70
13332;DHT22;6735;51.456;12.626;2023-05-23T13:41:58;16.90;74.60
13332;DHT22;6735;51.456;12.626;2023-05-23T13:44:23;16.90;74.60
13332;DHT22;6735;51.456;12.626;2023-05-23T13:46:49;16.80;74.80
13332;DHT22;6735;51.456;12.626;2023-05-23T13:49:14;16.70;74.70
13332;DHT22;6735;51.456;12.626;2023-05-23T13:51:40;16.70;75.00
13332;DHT22;6735;51.456;12.626;2023-05-23T13:54:07;16.70;75.20
13332;DHT22;6735;51.456;12.626;2023-05-23T13:56:33;16.60;75.10
13332;DHT22;6735;51.456;12.626;2023-05-23T13:58:58;16.50;75.10
13332;DHT22;6735;51.456;12.626;2023-05-23T14:01:24;16.40;75.80
13332;DHT22;6735;51.456;12.626;2023-05-23T14:03:49;16.50;75.30
13332;DHT22;6735;51.456;12.626;2023-05-23T14:06:15;16.50;76.10
13332;DHT22;6735;51.456;12.626;2023-05-23T14:08:40;16.40;76.40
13332;DHT22;6735;51.456;12.626;2023-05-23T14:11:06;16.40;76.80
13332;DHT22;6735;51.456;12.626;2023-05-23T14:13:31;16.30;76.90
13332;DHT22;6735;51.456;12.626;2023-05-23T14:15:57;16.20;76.90
13332;DHT22;6735;51.456;12.626;2023-05-23T14:18:23;16.30;77.20
13332;DHT22;6735;51.456;12.626;2023-05-23T14:20:48;16.20;77.20
13332;DHT22;6735;51.456;12.626;2023-05-23T14:23:14;16.30;77.10
13332;DHT22;6735;51.456;12.626;2023-05-23T14:25:40;16.30;76.90
13332;DHT22;6735;51.456;12.626;2023-05-23T14:28:05;16.30;76.60
13332;DHT22;6735;51.456;12.626;2023-05-23T14:30:31;16.40;76.20
13332;DHT22;6735;51.456;12.626;2023-05-23T14:32:56;16.60;75.80
13332;DHT22;6735;51.456;12.626;2023-05-23T14:35:22;16.70;75.60
13332;DHT22;6735;51.456;12.626;2023-05-23T14:37:48;16.70;75.40
13332;DHT22;6735;51.456;12.626;2023-05-23T14:40:13;16.60;75.60
13332;DHT22;6735;51.456;12.626;2023-05-23T14:42:40;16.70;75.40
13332;DHT22;6735;51.456;12.626;2023-05-23T14:45:06;16.60;75.60
13332;DHT22;6735;51.456;12.626;2023-05-23T14:47:32;16.60;75.60
13332;DHT22;6735;51.456;12.626;2023-05-23T14:49:58;16.40;75.70
13332;DHT22;6735;51.456;12.626;2023-05-23T14:52:23;16.30;76.10
13332;DHT22;6735;51.456;12.626;2023-05-23T14:54:48;16.20;76.10
13332;DHT22;6735;51.456;12.626;2023-05-23T14:57:14;16.10;76.40
13332;DHT22;6735;51.456;12.626;2023-05-23T14:59:40;16.00;76.50
13332;DHT22;6735;51.456;12.626;2023-05-23T15:02:05;15.90;76.80
13332;DHT22;6735;51.456;12.626;2023-05-23T15:04:32;15.90;76.80
13332;DHT22;6735;51.456;12.626;2023-05-23T15:06:57;15.80;77.00
13332;DHT22;6735;51.456;12.626;2023-05-23T15:09:23;15.70;77.00
13332;DHT22;6735;51.456;12.626;2023-05-23T15:11:49;15.60;77.30
13332;DHT22;6735;51.456;12.626;2023-05-23T15:14:17;15.60;77.50
13332;DHT22;6735;51.456;12.626;2023-05-23T15:16:44;15.50;77.70
13332;DHT22;6735;51.456;12.626;2023-05-23T15:19:09;15.50;77.60
13332;DHT22;6735;51.456;12.626;2023-05-23T15:21:35;15.40;78.00
13332;DHT22;6735;51.456;12.626;2023-05-23T15:24:01;15.40;78.00
13332;DHT22;6735;51.456;12.626;2023-05-23T15:26:27;15.40;78.40
13332;DHT22;6735;51.456;12.626;2023-05-23T15:28:53;15.40;78.80
13332;DHT22;6735;51.456;12.626;2023-05-23T15:31:18;15.30;78.60
13332;DHT22;6735;51.456;12.626;2023-05-23T15:33:44;15.10;78.80
13332;DHT22;6735;51.456;12.626;2023-05-23T15:36:09;15.10;78.90
13332;DHT22;6735;51.456;12.626;2023-05-23T15:38:37;15.10;78.70
13332;DHT22;6735;51.456;12.626;2023-05-23T15:41:02;15.10;78.80
13332;DHT22;6735;51.456;12.626;2023-05-23T15:43:29;15.20;78.20
13332;DHT22;6735;51.456;12.626;2023-05-23T15:45:54;15.20;77.60
13332;DHT22;6735;51.456;12.626;2023-05-23T15:48:20;15.20;77.10